sensor_id;sensor_type;location;lat;lon;timestamp;P1;durP1;ratioP1;P2;durP2;ratioP2
59336;SDS011;45115;52.002;4.686;2022-07-04T00:01:18;10.65;;;4.20;;
59336;SDS011;45115;52.002;4.686;2022-07-04T00:03:46;7.65;;;3.85;;
59336;SDS011;45115;52.002;4.686;2022-07-04T00:06:13;6.32;;;3.65;;
59336;SDS011;45115;52.002;4.686;2022-07-04T00:08:39;4.75;;;3.58;;
59336;SDS011;45115;52.002;4.686;2022-07-04T00:11:06;6.18;;;3.60;;
59336;SDS011;45115;52.002;4.686;2022-07-04T00:13:33;8.55;;;4.30;;
59336;SDS011;45115;52.002;4.686;2022-07-04T00:15:59;6.15;;;3.60;;
59336;SDS011;45115;52.002;4.686;2022-07-04T00:18:26;7.40;;;4.32;;
59336;SDS011;45115;52.002;4.686;2022-07-04T00:20:54;10.40;;;4.55;;
59336;SDS011;45115;52.002;4.686;2022-07-04T00:23:20;7.85;;;4.00;;
59336;SDS011;45115;52.002;4.686;2022-07-04T00:25:47;9.40;;;4.40;;
59336;SDS011;45115;52.002;4.686;2022-07-04T00:28:13;8.48;;;4.43;;
59336;SDS011;45115;52.002;4.686;2022-07-04T00:30:40;7.68;;;4.25;;
59336;SDS011;45115;52.002;4.686;2022-07-04T00:33:10;10.65;;;4.43;;
59336;SDS011;45115;52.002;4.686;2022-07-04T00:35:39;9.38;;;4.57;;
59336;SDS011;45115;52.002;4.686;2022-07-04T00:38:07;11.82;;;4.70;;
59336;SDS011;45115;52.002;4.686;2022-07-04T00:40:34;10.50;;;4.72;;
59336;SDS011;45115;52.002;4.686;2022-07-04T00:43:01;8.48;;;4.60;;
59336;SDS011;45115;52.002;4.686;2022-07-04T00:45:28;7.30;;;4.25;;
59336;SDS011;45115;52.002;4.686;2022-07-04T00:47:55;9.27;;;4.43;;
59336;SDS011;45115;52.002;4.686;2022-07-04T00:50:21;10.75;;;5.00;;
59336;SDS011;45115;52.002;4.686;2022-07-04T00:52:49;10.93;;;4.85;;
59336;SDS011;45115;52.002;4.686;2022-07-04T00:55:19;11.13;;;4.40;;
59336;SDS011;45115;52.002;4.686;2022-07-04T00:57:47;10.05;;;4.85;;
59336;SDS011;45115;52.002;4.686;2022-07-04T01:00:13;8.40;;;4.40;;
59336;SDS011;45115;52.002;4.686;2022-07-04T01:02:41;10.23;;;4.90;;
59336;SDS011;45115;52.002;4.686;2022-07-04T01:05:08;9.95;;;4.88;;
59336;SDS011;45115;52.002;4.686;2022-07-04T01:07:35;11.15;;;4.85;;
59336;SDS011;45115;52.002;4.686;2022-07-04T01:10:02;10.40;;;5.28;;
59336;SDS011;45115;52.002;4.686;2022-07-04T01:12:30;11.68;;;4.40;;
59336;SDS011;45115;52.002;4.686;2022-07-04T01:14:57;11.73;;;5.15;;
59336;SDS011;45115;52.002;4.686;2022-07-04T01:17:24;13.20;;;5.85;;
59336;SDS011;45115;52.002;4.686;2022-07-04T01:19:50;10.70;;;4.82;;
59336;SDS011;45115;52.002;4.686;2022-07-04T01:22:18;11.05;;;5.25;;
59336;SDS011;45115;52.002;4.686;2022-07-04T01:24:46;11.95;;;5.20;;
59336;SDS011;45115;52.002;4.686;2022-07-04T01:27:13;11.90;;;5.28;;
59336;SDS011;45115;52.002;4.686;2022-07-04T01:29:40;10.45;;;5.05;;
59336;SDS011;45115;52.002;4.686;2022-07-04T01:32:07;9.82;;;5.25;;
59336;SDS011;45115;52.002;4.686;2022-07-04T01:34:35;9.85;;;5.05;;
59336;SDS011;45115;52.002;4.686;2022-07-04T01:37:04;11.05;;;4.88;;
59336;SDS011;45115;52.002;4.686;2022-07-04T01:39:32;10.00;;;5.22;;
59336;SDS011;45115;52.002;4.686;2022-07-04T01:41:58;10.50;;;5.30;;
59336;SDS011;45115;52.002;4.686;2022-07-04T01:44:25;14.13;;;5.82;;
59336;SDS011;45115;52.002;4.686;2022-07-04T01:46:51;11.30;;;5.47;;
59336;SDS011;45115;52.002;4.686;2022-07-04T01:49:18;11.13;;;5.68;;
59336;SDS011;45115;52.002;4.686;2022-07-04T01:51:45;10.18;;;5.50;;
59336;SDS011;45115;52.002;4.686;2022-07-04T01:54:12;14.63;;;5.93;;
59336;SDS011;45115;52.002;4.686;2022-07-04T01:56:40;10.98;;;5.60;;
59336;SDS011;45115;52.002;4.686;2022-07-04T01:59:07;10.43;;;5.43;;
59336;SDS011;45115;52.002;4.686;2022-07-04T02:01:34;12.85;;;5.07;;
59336;SDS011;45115;52.002;4.686;2022-07-04T02:04:01;12.00;;;5.28;;
59336;SDS011;45115;52.002;4.686;2022-07-04T02:06:29;9.27;;;4.97;;
59336;SDS011;45115;52.002;4.686;2022-07-04T02:08:56;9.25;;;5.28;;
59336;SDS011;45115;52.002;4.686;2022-07-04T02:11:43;8.05;;;4.95;;
59336;SDS011;45115;52.002;4.686;2022-07-04T02:14:28;11.40;;;5.50;;
59336;SDS011;45115;52.002;4.686;2022-07-04T02:16:55;11.65;;;5.82;;
59336;SDS011;45115;52.002;4.686;2022-07-04T02:19:21;10.10;;;5.50;;
59336;SDS011;45115;52.002;4.686;2022-07-04T02:21:48;10.82;;;5.05;;
59336;SDS011;45115;52.002;4.686;2022-07-04T02:24:15;11.00;;;4.82;;
59336;SDS011;45115;52.002;4.686;2022-07-04T02:26:43;12.48;;;5.90;;
59336;SDS011;45115;52.002;4.686;2022-07-04T02:29:10;12.82;;;5.18;;
59336;SDS011;45115;52.002;4.686;2022-07-04T02:31:36;10.02;;;4.85;;
59336;SDS011;45115;52.002;4.686;2022-07-04T02:34:03;14.13;;;5.53;;
59336;SDS011;45115;52.002;4.686;2022-07-04T02:36:29;12.23;;;5.15;;
59336;SDS011;45115;52.002;4.686;2022-07-04T02:38:56;9.38;;;4.80;;
59336;SDS011;45115;52.002;4.686;2022-07-04T02:41:23;11.52;;;4.88;;
59336;SDS011;45115;52.002;4.686;2022-07-04T02:43:51;10.90;;;5.40;;
59336;SDS011;45115;52.002;4.686;2022-07-04T02:46:17;13.20;;;5.45;;
59336;SDS011;45115;52.002;4.686;2022-07-04T02:48:44;12.18;;;5.25;;
59336;SDS011;45115;52.002;4.686;2022-07-04T02:51:11;10.23;;;5.10;;
59336;SDS011;45115;52.002;4.686;2022-07-04T02:53:37;12.10;;;5.82;;
59336;SDS011;45115;52.002;4.686;2022-07-04T02:56:04;9.93;;;5.20;;
59336;SDS011;45115;52.002;4.686;2022-07-04T02:58:31;11.15;;;5.45;;
59336;SDS011;45115;52.002;4.686;2022-07-04T03:00:59;12.10;;;5.30;;
59336;SDS011;45115;52.002;4.686;2022-07-04T03:03:26;10.52;;;5.65;;
59336;SDS011;45115;52.002;4.686;2022-07-04T03:05:53;11.57;;;5.18;;
59336;SDS011;45115;52.002;4.686;2022-07-04T03:08:20;12.65;;;4.93;;
59336;SDS011;45115;52.002;4.686;2022-07-04T03:10:48;10.93;;;4.97;;
59336;SDS011;45115;52.002;4.686;2022-07-04T03:13:15;11.85;;;4.57;;
59336;SDS011;45115;52.002;4.686;2022-07-04T03:15:41;14.57;;;4.80;;
59336;SDS011;45115;52.002;4.686;2022-07-04T03:18:09;11.82;;;5.13;;
59336;SDS011;45115;52.002;4.686;2022-07-04T03:20:36;11.98;;;5.25;;
59336;SDS011;45115;52.002;4.686;2022-07-04T03:23:02;9.45;;;5.07;;
59336;SDS011;45115;52.002;4.686;2022-07-04T03:25:29;11.63;;;4.93;;
59336;SDS011;45115;52.002;4.686;2022-07-04T03:27:56;9.95;;;4.78;;
59336;SDS011;45115;52.002;4.686;2022-07-04T03:30:22;8.07;;;4.82;;
59336;SDS011;45115;52.002;4.686;2022-07-04T03:32:49;9.25;;;4.72;;
59336;SDS011;45115;52.002;4.686;2022-07-04T03:35:17;11.63;;;4.95;;
59336;SDS011;45115;52.002;4.686;2022-07-04T03:37:44;11.50;;;5.32;;
59336;SDS011;45115;52.002;4.686;2022-07-04T03:40:10;12.70;;;4.78;;
59336;SDS011;45115;52.002;4.686;2022-07-04T03:42:37;7.70;;;4.30;;
59336;SDS011;45115;52.002;4.686;2022-07-04T03:45:04;8.98;;;4.63;;
59336;SDS011;45115;52.002;4.686;2022-07-04T03:47:32;9.25;;;4.75;;
59336;SDS011;45115;52.002;4.686;2022-07-04T03:49:58;10.40;;;5.03;;
59336;SDS011;45115;52.002;4.686;2022-07-04T03:52:27;9.70;;;4.90;;
59336;SDS011;45115;52.002;4.686;2022-07-04T03:54:53;13.65;;;5.05;;
59336;SDS011;45115;52.002;4.686;2022-07-04T03:57:20;10.75;;;5.03;;
59336;SDS011;45115;52.002;4.686;2022-07-04T03:59:47;8.85;;;4.78;;
59336;SDS011;45115;52.002;4.686;2022-07-04T04:02:13;11.27;;;4.93;;
59336;SDS011;45115;52.002;4.686;2022-07-04T04:04:40;12.18;;;5.30;;
59336;SDS011;45115;52.002;4.686;2022-07-04T04:07:24;11.95;;;5.40;;
59336;SDS011;45115;52.002;4.686;2022-07-04T04:09:52;12.20;;;4.75;;
59336;SDS011;45115;52.002;4.686;2022-07-04T04:12:19;8.45;;;4.70;;
59336;SDS011;45115;52.002;4.686;2022-07-04T04:15:01;9.20;;;4.72;;
59336;SDS011;45115;52.002;4.686;2022-07-04T04:17:28;13.02;;;5.32;;
59336;SDS011;45115;52.002;4.686;2022-07-04T04:19:54;10.70;;;5.15;;
59336;SDS011;45115;52.002;4.686;2022-07-04T04:22:21;9.60;;;5.03;;
59336;SDS011;45115;52.002;4.686;2022-07-04T04:24:48;11.15;;;4.90;;
59336;SDS011;45115;52.002;4.686;2022-07-04T04:27:16;11.73;;;4.93;;
59336;SDS011;45115;52.002;4.686;2022-07-04T04:29:42;9.57;;;4.72;;
59336;SDS011;45115;52.002;4.686;2022-07-04T04:32:09;10.63;;;4.90;;
59336;SDS011;45115;52.002;4.686;2022-07-04T04:34:35;10.77;;;4.90;;
59336;SDS011;45115;52.002;4.686;2022-07-04T04:37:02;10.32;;;4.47;;
59336;SDS011;45115;52.002;4.686;2022-07-04T04:39:29;10.90;;;4.63;;
59336;SDS011;45115;52.002;4.686;2022-07-04T04:41:56;9.55;;;4.88;;
59336;SDS011;45115;52.002;4.686;2022-07-04T04:44:24;8.73;;;4.72;;
59336;SDS011;45115;52.002;4.686;2022-07-04T04:46:51;12.68;;;5.10;;
59336;SDS011;45115;52.002;4.686;2022-07-04T04:49:17;17.40;;;5.50;;
59336;SDS011;45115;52.002;4.686;2022-07-04T04:51:44;14.02;;;5.20;;
59336;SDS011;45115;52.002;4.686;2022-07-04T04:54:11;10.25;;;5.18;;
59336;SDS011;45115;52.002;4.686;2022-07-04T04:56:37;17.05;;;5.47;;
59336;SDS011;45115;52.002;4.686;2022-07-04T04:59:04;13.27;;;5.63;;
59336;SDS011;45115;52.002;4.686;2022-07-04T05:01:32;12.65;;;4.90;;
59336;SDS011;45115;52.002;4.686;2022-07-04T05:03:59;12.18;;;5.38;;
59336;SDS011;45115;52.002;4.686;2022-07-04T05:06:25;11.73;;;5.15;;
59336;SDS011;45115;52.002;4.686;2022-07-04T05:08:52;11.02;;;4.90;;
59336;SDS011;45115;52.002;4.686;2022-07-04T05:11:19;9.13;;;4.20;;
59336;SDS011;45115;52.002;4.686;2022-07-04T05:13:45;8.13;;;4.30;;
59336;SDS011;45115;52.002;4.686;2022-07-04T05:16:12;6.15;;;3.38;;
59336;SDS011;45115;52.002;4.686;2022-07-04T05:18:40;11.13;;;4.07;;
59336;SDS011;45115;52.002;4.686;2022-07-04T05:21:07;11.52;;;4.40;;
59336;SDS011;45115;52.002;4.686;2022-07-04T05:23:33;8.15;;;3.60;;
59336;SDS011;45115;52.002;4.686;2022-07-04T05:26:00;8.00;;;3.80;;
59336;SDS011;45115;52.002;4.686;2022-07-04T05:28:26;5.47;;;3.40;;
59336;SDS011;45115;52.002;4.686;2022-07-04T05:30:53;7.72;;;3.55;;
59336;SDS011;45115;52.002;4.686;2022-07-04T05:33:20;11.82;;;3.95;;
59336;SDS011;45115;52.002;4.686;2022-07-04T05:35:48;12.70;;;4.38;;
59336;SDS011;45115;52.002;4.686;2022-07-04T05:38:15;8.45;;;3.20;;
59336;SDS011;45115;52.002;4.686;2022-07-04T05:40:41;7.68;;;3.83;;
59336;SDS011;45115;52.002;4.686;2022-07-04T05:43:08;10.38;;;3.97;;
59336;SDS011;45115;52.002;4.686;2022-07-04T05:45:35;9.57;;;4.05;;
59336;SDS011;45115;52.002;4.686;2022-07-04T05:48:02;8.93;;;3.72;;
59336;SDS011;45115;52.002;4.686;2022-07-04T05:50:29;5.60;;;3.00;;
59336;SDS011;45115;52.002;4.686;2022-07-04T05:52:57;6.43;;;2.95;;
59336;SDS011;45115;52.002;4.686;2022-07-04T05:55:23;5.32;;;2.90;;
59336;SDS011;45115;52.002;4.686;2022-07-04T05:57:50;9.45;;;3.47;;
59336;SDS011;45115;52.002;4.686;2022-07-04T06:00:18;6.40;;;3.30;;
59336;SDS011;45115;52.002;4.686;2022-07-04T06:02:45;6.43;;;3.63;;
59336;SDS011;45115;52.002;4.686;2022-07-04T06:05:12;4.97;;;3.10;;
59336;SDS011;45115;52.002;4.686;2022-07-04T06:07:38;8.82;;;3.42;;
59336;SDS011;45115;52.002;4.686;2022-07-04T06:10:07;7.22;;;3.30;;
59336;SDS011;45115;52.002;4.686;2022-07-04T06:12:34;8.73;;;3.40;;
59336;SDS011;45115;52.002;4.686;2022-07-04T06:15:01;6.10;;;2.65;;
59336;SDS011;45115;52.002;4.686;2022-07-04T06:17:27;4.95;;;2.45;;
59336;SDS011;45115;52.002;4.686;2022-07-04T06:19:54;7.50;;;2.75;;
59336;SDS011;45115;52.002;4.686;2022-07-04T06:22:20;5.90;;;2.90;;
59336;SDS011;45115;52.002;4.686;2022-07-04T06:24:47;6.30;;;2.75;;
59336;SDS011;45115;52.002;4.686;2022-07-04T06:27:15;5.32;;;2.33;;
59336;SDS011;45115;52.002;4.686;2022-07-04T06:29:45;5.85;;;2.70;;
59336;SDS011;45115;52.002;4.686;2022-07-04T06:32:12;4.32;;;2.72;;
59336;SDS011;45115;52.002;4.686;2022-07-04T06:34:38;5.78;;;2.70;;
59336;SDS011;45115;52.002;4.686;2022-07-04T06:37:22;2.60;;;2.20;;
59336;SDS011;45115;52.002;4.686;2022-07-04T06:39:51;3.78;;;2.28;;
59336;SDS011;45115;52.002;4.686;2022-07-04T06:42:19;5.80;;;2.33;;
59336;SDS011;45115;52.002;4.686;2022-07-04T06:44:48;3.92;;;2.13;;
59336;SDS011;45115;52.002;4.686;2022-07-04T06:47:15;6.32;;;2.30;;
59336;SDS011;45115;52.002;4.686;2022-07-04T06:49:42;7.53;;;2.63;;
59336;SDS011;45115;52.002;4.686;2022-07-04T06:52:09;2.55;;;2.17;;
59336;SDS011;45115;52.002;4.686;2022-07-04T06:54:38;5.97;;;2.50;;
59336;SDS011;45115;52.002;4.686;2022-07-04T06:57:05;2.83;;;2.13;;
59336;SDS011;45115;52.002;4.686;2022-07-04T06:59:33;4.18;;;2.03;;
59336;SDS011;45115;52.002;4.686;2022-07-04T07:02:00;6.93;;;2.15;;
59336;SDS011;45115;52.002;4.686;2022-07-04T07:04:26;3.30;;;2.40;;
59336;SDS011;45115;52.002;4.686;2022-07-04T07:06:53;3.92;;;2.17;;
59336;SDS011;45115;52.002;4.686;2022-07-04T07:09:19;4.10;;;2.20;;
59336;SDS011;45115;52.002;4.686;2022-07-04T07:11:46;3.10;;;2.10;;
59336;SDS011;45115;52.002;4.686;2022-07-04T07:14:12;3.55;;;2.10;;
59336;SDS011;45115;52.002;4.686;2022-07-04T07:16:40;3.05;;;1.90;;
59336;SDS011;45115;52.002;4.686;2022-07-04T07:19:07;3.22;;;2.00;;
59336;SDS011;45115;52.002;4.686;2022-07-04T07:21:34;5.13;;;2.30;;
59336;SDS011;45115;52.002;4.686;2022-07-04T07:24:00;3.92;;;2.20;;
59336;SDS011;45115;52.002;4.686;2022-07-04T07:26:29;5.45;;;2.30;;
59336;SDS011;45115;52.002;4.686;2022-07-04T07:28:56;5.65;;;2.60;;
59336;SDS011;45115;52.002;4.686;2022-07-04T07:31:22;2.88;;;2.00;;
59336;SDS011;45115;52.002;4.686;2022-07-04T07:33:50;2.95;;;2.20;;
59336;SDS011;45115;52.002;4.686;2022-07-04T07:36:17;5.97;;;2.25;;
59336;SDS011;45115;52.002;4.686;2022-07-04T07:38:43;4.90;;;2.53;;
59336;SDS011;45115;52.002;4.686;2022-07-04T07:41:10;7.07;;;2.53;;
59336;SDS011;45115;52.002;4.686;2022-07-04T07:43:37;5.82;;;2.33;;
59336;SDS011;45115;52.002;4.686;2022-07-04T07:46:05;4.32;;;2.45;;
59336;SDS011;45115;52.002;4.686;2022-07-04T07:48:32;5.47;;;2.47;;
59336;SDS011;45115;52.002;4.686;2022-07-04T07:51:01;6.30;;;2.80;;
59336;SDS011;45115;52.002;4.686;2022-07-04T07:53:28;5.63;;;2.97;;
59336;SDS011;45115;52.002;4.686;2022-07-04T07:55:54;4.00;;;2.38;;
59336;SDS011;45115;52.002;4.686;2022-07-04T07:58:21;4.13;;;2.25;;
59336;SDS011;45115;52.002;4.686;2022-07-04T08:00:48;3.67;;;2.20;;
59336;SDS011;45115;52.002;4.686;2022-07-04T08:03:14;3.28;;;2.20;;
59336;SDS011;45115;52.002;4.686;2022-07-04T08:05:59;2.45;;;2.25;;
59336;SDS011;45115;52.002;4.686;2022-07-04T08:08:27;3.60;;;2.15;;
59336;SDS011;45115;52.002;4.686;2022-07-04T08:10:53;2.40;;;2.20;;
59336;SDS011;45115;52.002;4.686;2022-07-04T08:13:20;2.55;;;2.15;;
59336;SDS011;45115;52.002;4.686;2022-07-04T08:15:47;3.15;;;2.45;;
59336;SDS011;45115;52.002;4.686;2022-07-04T08:18:14;3.58;;;2.42;;
59336;SDS011;45115;52.002;4.686;2022-07-04T08:20:42;1.98;;;1.85;;
59336;SDS011;45115;52.002;4.686;2022-07-04T08:23:10;2.35;;;2.15;;
59336;SDS011;45115;52.002;4.686;2022-07-04T08:25:37;2.40;;;1.90;;
59336;SDS011;45115;52.002;4.686;2022-07-04T08:28:03;5.47;;;2.08;;
59336;SDS011;45115;52.002;4.686;2022-07-04T08:30:30;4.13;;;2.30;;
59336;SDS011;45115;52.002;4.686;2022-07-04T08:32:57;2.50;;;2.25;;
59336;SDS011;45115;52.002;4.686;2022-07-04T08:35:24;2.47;;;2.20;;
59336;SDS011;45115;52.002;4.686;2022-07-04T08:37:51;2.13;;;1.98;;
59336;SDS011;45115;52.002;4.686;2022-07-04T08:40:20;3.95;;;2.08;;
59336;SDS011;45115;52.002;4.686;2022-07-04T08:42:48;4.53;;;2.22;;
59336;SDS011;45115;52.002;4.686;2022-07-04T08:45:16;2.83;;;1.92;;
59336;SDS011;45115;52.002;4.686;2022-07-04T08:47:43;2.83;;;2.15;;
59336;SDS011;45115;52.002;4.686;2022-07-04T08:50:15;3.03;;;2.28;;
59336;SDS011;45115;52.002;4.686;2022-07-04T08:52:51;3.35;;;2.40;;
59336;SDS011;45115;52.002;4.686;2022-07-04T08:55:22;3.33;;;2.58;;
59336;SDS011;45115;52.002;4.686;2022-07-04T08:58:07;5.18;;;2.63;;
59336;SDS011;45115;52.002;4.686;2022-07-04T09:00:55;4.70;;;2.75;;
59336;SDS011;45115;52.002;4.686;2022-07-04T09:03:23;5.07;;;2.63;;
59336;SDS011;45115;52.002;4.686;2022-07-04T09:05:51;2.83;;;2.50;;
59336;SDS011;45115;52.002;4.686;2022-07-04T09:08:17;3.45;;;2.55;;
59336;SDS011;45115;52.002;4.686;2022-07-04T09:10:46;4.32;;;2.80;;
59336;SDS011;45115;52.002;4.686;2022-07-04T09:13:14;4.00;;;2.55;;
59336;SDS011;45115;52.002;4.686;2022-07-04T09:15:43;3.85;;;2.50;;
59336;SDS011;45115;52.002;4.686;2022-07-04T09:18:20;4.75;;;2.95;;
59336;SDS011;45115;52.002;4.686;2022-07-04T09:20:48;3.63;;;2.72;;
59336;SDS011;45115;52.002;4.686;2022-07-04T09:23:19;2.75;;;2.35;;
59336;SDS011;45115;52.002;4.686;2022-07-04T09:25:48;4.03;;;2.22;;
59336;SDS011;45115;52.002;4.686;2022-07-04T09:28:31;2.78;;;2.15;;
59336;SDS011;45115;52.002;4.686;2022-07-04T09:30:58;5.20;;;2.67;;
59336;SDS011;45115;52.002;4.686;2022-07-04T09:36:11;4.65;;;2.60;;
59336;SDS011;45115;52.002;4.686;2022-07-04T09:38:38;3.05;;;2.47;;
59336;SDS011;45115;52.002;4.686;2022-07-04T09:41:06;3.15;;;2.20;;
59336;SDS011;45115;52.002;4.686;2022-07-04T09:43:57;5.57;;;2.10;;
59336;SDS011;45115;52.002;4.686;2022-07-04T09:46:25;2.95;;;1.90;;
59336;SDS011;45115;52.002;4.686;2022-07-04T09:48:52;2.53;;;1.80;;
59336;SDS011;45115;52.002;4.686;2022-07-04T09:51:34;3.40;;;2.17;;
59336;SDS011;45115;52.002;4.686;2022-07-04T09:56:44;2.97;;;2.10;;
59336;SDS011;45115;52.002;4.686;2022-07-04T09:59:12;2.30;;;2.05;;
59336;SDS011;45115;52.002;4.686;2022-07-04T10:01:39;2.83;;;1.88;;
59336;SDS011;45115;52.002;4.686;2022-07-04T10:04:06;2.60;;;1.80;;
59336;SDS011;45115;52.002;4.686;2022-07-04T10:06:34;3.15;;;1.90;;
59336;SDS011;45115;52.002;4.686;2022-07-04T10:09:07;2.53;;;2.10;;
59336;SDS011;45115;52.002;4.686;2022-07-04T10:11:35;1.90;;;1.60;;
59336;SDS011;45115;52.002;4.686;2022-07-04T10:14:05;2.22;;;1.80;;
59336;SDS011;45115;52.002;4.686;2022-07-04T10:16:33;2.95;;;2.10;;
59336;SDS011;45115;52.002;4.686;2022-07-04T10:19:00;2.13;;;1.92;;
59336;SDS011;45115;52.002;4.686;2022-07-04T10:21:28;3.72;;;1.98;;
59336;SDS011;45115;52.002;4.686;2022-07-04T10:23:55;2.33;;;2.13;;
59336;SDS011;45115;52.002;4.686;2022-07-04T10:26:22;4.25;;;2.33;;
59336;SDS011;45115;52.002;4.686;2022-07-04T10:28:49;5.38;;;2.10;;
59336;SDS011;45115;52.002;4.686;2022-07-04T10:31:19;3.08;;;2.10;;
59336;SDS011;45115;52.002;4.686;2022-07-04T10:33:47;4.75;;;2.28;;
59336;SDS011;45115;52.002;4.686;2022-07-04T10:36:16;5.35;;;2.10;;
59336;SDS011;45115;52.002;4.686;2022-07-04T10:38:47;3.40;;;2.17;;
59336;SDS011;45115;52.002;4.686;2022-07-04T10:41:14;2.72;;;2.13;;
59336;SDS011;45115;52.002;4.686;2022-07-04T10:46:30;4.45;;;2.45;;
59336;SDS011;45115;52.002;4.686;2022-07-04T10:49:17;2.97;;;2.08;;
59336;SDS011;45115;52.002;4.686;2022-07-04T10:51:46;3.25;;;2.20;;
59336;SDS011;45115;52.002;4.686;2022-07-04T10:54:14;3.33;;;2.25;;
59336;SDS011;45115;52.002;4.686;2022-07-04T10:56:43;4.15;;;2.20;;
59336;SDS011;45115;52.002;4.686;2022-07-04T10:59:14;4.85;;;2.08;;
59336;SDS011;45115;52.002;4.686;2022-07-04T11:01:51;3.78;;;2.25;;
59336;SDS011;45115;52.002;4.686;2022-07-04T11:07:12;2.58;;;2.05;;
59336;SDS011;45115;52.002;4.686;2022-07-04T11:09:38;2.67;;;2.20;;
59336;SDS011;45115;52.002;4.686;2022-07-04T11:12:05;2.63;;;2.00;;
59336;SDS011;45115;52.002;4.686;2022-07-04T11:14:33;2.55;;;1.65;;
59336;SDS011;45115;52.002;4.686;2022-07-04T11:17:04;4.80;;;2.30;;
59336;SDS011;45115;52.002;4.686;2022-07-04T11:19:32;2.00;;;1.90;;
59336;SDS011;45115;52.002;4.686;2022-07-04T11:21:59;3.30;;;2.08;;
59336;SDS011;45115;52.002;4.686;2022-07-04T11:24:26;4.05;;;2.08;;
59336;SDS011;45115;52.002;4.686;2022-07-04T11:26:54;2.63;;;2.00;;
59336;SDS011;45115;52.002;4.686;2022-07-04T11:29:20;2.72;;;2.20;;
59336;SDS011;45115;52.002;4.686;2022-07-04T11:31:48;3.20;;;2.13;;
59336;SDS011;45115;52.002;4.686;2022-07-04T11:34:16;5.43;;;2.25;;
59336;SDS011;45115;52.002;4.686;2022-07-04T11:36:45;5.43;;;2.20;;
59336;SDS011;45115;52.002;4.686;2022-07-04T11:39:13;3.60;;;2.40;;
59336;SDS011;45115;52.002;4.686;2022-07-04T11:41:44;2.30;;;2.05;;
59336;SDS011;45115;52.002;4.686;2022-07-04T11:44:32;3.92;;;1.98;;
59336;SDS011;45115;52.002;4.686;2022-07-04T11:47:17;2.35;;;2.13;;
59336;SDS011;45115;52.002;4.686;2022-07-04T11:49:46;2.75;;;2.05;;
59336;SDS011;45115;52.002;4.686;2022-07-04T11:52:15;2.83;;;2.00;;
59336;SDS011;45115;52.002;4.686;2022-07-04T11:54:45;3.40;;;1.90;;
59336;SDS011;45115;52.002;4.686;2022-07-04T11:57:13;2.45;;;1.98;;
59336;SDS011;45115;52.002;4.686;2022-07-04T11:59:51;2.90;;;1.90;;
59336;SDS011;45115;52.002;4.686;2022-07-04T12:02:22;2.30;;;2.10;;
59336;SDS011;45115;52.002;4.686;2022-07-04T12:04:51;5.97;;;2.42;;
59336;SDS011;45115;52.002;4.686;2022-07-04T12:07:18;3.22;;;1.90;;
59336;SDS011;45115;52.002;4.686;2022-07-04T12:09:48;2.25;;;2.08;;
59336;SDS011;45115;52.002;4.686;2022-07-04T12:12:15;2.22;;;2.05;;
59336;SDS011;45115;52.002;4.686;2022-07-04T12:14:56;3.35;;;2.03;;
59336;SDS011;45115;52.002;4.686;2022-07-04T12:17:31;2.38;;;1.95;;
59336;SDS011;45115;52.002;4.686;2022-07-04T12:20:01;6.13;;;2.03;;
59336;SDS011;45115;52.002;4.686;2022-07-04T12:22:31;1.63;;;1.48;;
59336;SDS011;45115;52.002;4.686;2022-07-04T12:25:00;3.25;;;1.80;;
59336;SDS011;45115;52.002;4.686;2022-07-04T12:27:29;2.28;;;1.92;;
59336;SDS011;45115;52.002;4.686;2022-07-04T12:29:56;3.85;;;1.80;;
59336;SDS011;45115;52.002;4.686;2022-07-04T12:38:16;4.45;;;1.90;;
59336;SDS011;45115;52.002;4.686;2022-07-04T12:43:17;4.40;;;1.70;;
59336;SDS011;45115;52.002;4.686;2022-07-04T12:45:45;3.63;;;1.85;;
59336;SDS011;45115;52.002;4.686;2022-07-04T12:48:17;3.60;;;2.13;;
59336;SDS011;45115;52.002;4.686;2022-07-04T12:50:50;3.88;;;2.08;;
59336;SDS011;45115;52.002;4.686;2022-07-04T12:56:06;3.13;;;2.03;;
59336;SDS011;45115;52.002;4.686;2022-07-04T12:58:36;4.90;;;2.10;;
59336;SDS011;45115;52.002;4.686;2022-07-04T13:01:03;2.80;;;1.98;;
59336;SDS011;45115;52.002;4.686;2022-07-04T13:03:33;4.22;;;2.22;;
59336;SDS011;45115;52.002;4.686;2022-07-04T13:06:09;3.92;;;2.10;;
59336;SDS011;45115;52.002;4.686;2022-07-04T13:08:36;4.45;;;2.30;;
59336;SDS011;45115;52.002;4.686;2022-07-04T13:11:03;4.40;;;1.90;;
59336;SDS011;45115;52.002;4.686;2022-07-04T13:13:48;2.45;;;2.00;;
59336;SDS011;45115;52.002;4.686;2022-07-04T13:16:26;3.10;;;2.17;;
59336;SDS011;45115;52.002;4.686;2022-07-04T13:19:02;2.33;;;1.75;;
59336;SDS011;45115;52.002;4.686;2022-07-04T13:21:50;4.00;;;2.00;;
59336;SDS011;45115;52.002;4.686;2022-07-04T13:24:24;3.67;;;1.92;;
59336;SDS011;45115;52.002;4.686;2022-07-04T13:26:53;3.80;;;2.00;;
59336;SDS011;45115;52.002;4.686;2022-07-04T13:29:20;4.95;;;2.15;;
59336;SDS011;45115;52.002;4.686;2022-07-04T13:31:47;2.35;;;2.10;;
59336;SDS011;45115;52.002;4.686;2022-07-04T13:34:23;2.70;;;2.10;;
59336;SDS011;45115;52.002;4.686;2022-07-04T13:36:51;3.47;;;2.20;;
59336;SDS011;45115;52.002;4.686;2022-07-04T13:39:24;4.68;;;2.30;;
59336;SDS011;45115;52.002;4.686;2022-07-04T13:41:57;2.88;;;1.85;;
59336;SDS011;45115;52.002;4.686;2022-07-04T13:44:33;4.22;;;2.20;;
59336;SDS011;45115;52.002;4.686;2022-07-04T13:47:11;2.65;;;2.25;;
59336;SDS011;45115;52.002;4.686;2022-07-04T13:49:49;4.40;;;2.33;;
59336;SDS011;45115;52.002;4.686;2022-07-04T13:52:26;4.97;;;2.30;;
59336;SDS011;45115;52.002;4.686;2022-07-04T13:54:52;5.15;;;2.20;;
59336;SDS011;45115;52.002;4.686;2022-07-04T13:57:21;3.72;;;2.30;;
59336;SDS011;45115;52.002;4.686;2022-07-04T13:59:48;2.83;;;2.05;;
59336;SDS011;45115;52.002;4.686;2022-07-04T14:02:14;3.17;;;2.20;;
59336;SDS011;45115;52.002;4.686;2022-07-04T14:04:41;3.20;;;2.47;;
59336;SDS011;45115;52.002;4.686;2022-07-04T14:07:07;6.35;;;2.13;;
59336;SDS011;45115;52.002;4.686;2022-07-04T14:09:38;4.40;;;2.10;;
59336;SDS011;45115;52.002;4.686;2022-07-04T14:12:08;3.78;;;2.50;;
59336;SDS011;45115;52.002;4.686;2022-07-04T14:14:38;3.42;;;2.20;;
59336;SDS011;45115;52.002;4.686;2022-07-04T14:17:08;6.93;;;2.45;;
59336;SDS011;45115;52.002;4.686;2022-07-04T14:19:36;4.22;;;2.38;;
59336;SDS011;45115;52.002;4.686;2022-07-04T14:22:04;3.40;;;2.30;;
59336;SDS011;45115;52.002;4.686;2022-07-04T14:24:33;3.22;;;2.05;;
59336;SDS011;45115;52.002;4.686;2022-07-04T14:27:01;3.38;;;2.00;;
59336;SDS011;45115;52.002;4.686;2022-07-04T14:29:37;2.85;;;2.13;;
59336;SDS011;45115;52.002;4.686;2022-07-04T14:32:24;2.88;;;2.22;;
59336;SDS011;45115;52.002;4.686;2022-07-04T14:35:08;3.80;;;2.33;;
59336;SDS011;45115;52.002;4.686;2022-07-04T14:37:42;4.90;;;2.60;;
59336;SDS011;45115;52.002;4.686;2022-07-04T14:40:14;5.20;;;2.35;;
59336;SDS011;45115;52.002;4.686;2022-07-04T14:45:32;3.17;;;2.17;;
59336;SDS011;45115;52.002;4.686;2022-07-04T14:47:58;3.10;;;2.45;;
59336;SDS011;45115;52.002;4.686;2022-07-04T14:50:26;2.47;;;2.10;;
59336;SDS011;45115;52.002;4.686;2022-07-04T14:52:53;2.67;;;2.08;;
59336;SDS011;45115;52.002;4.686;2022-07-04T14:55:19;4.30;;;2.20;;
59336;SDS011;45115;52.002;4.686;2022-07-04T14:57:46;3.65;;;2.53;;
59336;SDS011;45115;52.002;4.686;2022-07-04T15:00:14;2.90;;;2.67;;
59336;SDS011;45115;52.002;4.686;2022-07-04T15:02:42;5.50;;;2.60;;
59336;SDS011;45115;52.002;4.686;2022-07-04T15:05:11;3.53;;;2.33;;
59336;SDS011;45115;52.002;4.686;2022-07-04T15:07:38;3.40;;;2.35;;
59336;SDS011;45115;52.002;4.686;2022-07-04T15:10:07;3.22;;;2.30;;
59336;SDS011;45115;52.002;4.686;2022-07-04T15:12:34;4.25;;;2.50;;
59336;SDS011;45115;52.002;4.686;2022-07-04T15:15:04;4.22;;;2.40;;
59336;SDS011;45115;52.002;4.686;2022-07-04T15:17:37;4.03;;;2.40;;